createdAt,value
2022-11-05T00:01:35.872Z,10.50
2022-11-05T00:04:25.567Z,10.46
2022-11-05T00:07:34.275Z,10.42
2022-11-05T00:10:20.755Z,10.38
2022-11-05T00:13:07.931Z,10.33
2022-11-05T00:15:54.791Z,10.26
2022-11-05T00:18:23.182Z,10.22
2022-11-05T00:20:51.716Z,10.19
2022-11-05T00:23:38.601Z,10.16
2022-11-05T00:26:09.873Z,10.12
2022-11-05T00:28:40.989Z,10.10
2022-11-05T00:31:13.898Z,10.07
2022-11-05T00:33:43.732Z,10.06
2022-11-05T00:36:12.192Z,10.05
2022-11-05T00:38:40.517Z,10.03
2022-11-05T00:41:08.842Z,10.01
2022-11-05T00:43:55.825Z,10.00
2022-11-05T00:46:24.143Z,9.97
2022-11-05T00:49:11.194Z,9.95
2022-11-05T00:51:39.596Z,9.92
2022-11-05T00:54:07.921Z,9.91
2022-11-05T00:56:36.306Z,9.89
2022-11-05T00:59:04.825Z,9.88
2022-11-05T01:01:33.283Z,9.87
2022-11-05T01:04:01.663Z,9.86
2022-11-05T01:06:30.012Z,9.86
2022-11-05T01:08:58.422Z,9.85
2022-11-05T01:11:37.095Z,9.83
2022-11-05T01:14:16.070Z,9.74
2022-11-05T01:16:45.541Z,9.64
2022-11-05T01:19:13.982Z,9.53
2022-11-05T01:21:42.413Z,9.45
2022-11-05T01:24:10.960Z,9.37
2022-11-05T01:26:39.301Z,9.28
2022-11-05T01:29:07.749Z,9.22
2022-11-05T01:31:36.251Z,9.16
2022-11-05T01:34:04.762Z,9.10
2022-11-05T01:36:33.083Z,9.05
2022-11-05T01:39:02.001Z,9.01
2022-11-05T01:41:30.744Z,8.98
2022-11-05T01:44:00.016Z,8.94
2022-11-05T01:46:45.960Z,8.91
2022-11-05T01:49:33.622Z,8.89
2022-11-05T01:52:04.692Z,8.86
2022-11-05T01:54:35.051Z,8.84
2022-11-05T01:57:08.101Z,8.81
2022-11-05T01:59:59.861Z,8.79
2022-11-05T02:02:31.129Z,8.76
2022-11-05T02:05:06.428Z,8.74
2022-11-05T02:07:34.872Z,8.73
2022-11-05T02:10:09.131Z,8.71
2022-11-05T02:12:41.485Z,8.71
2022-11-05T02:15:21.791Z,8.71
2022-11-05T02:18:29.170Z,8.71
2022-11-05T02:21:34.537Z,8.71
2022-11-05T02:24:48.100Z,8.72
2022-11-05T02:27:47.507Z,8.71
2022-11-05T02:30:49.420Z,8.71
2022-11-05T02:33:41.771Z,8.70
2022-11-05T02:36:55.157Z,8.71
2022-11-05T02:39:47.188Z,8.71
2022-11-05T02:42:42.555Z,8.71
2022-11-05T02:45:46.344Z,8.72
2022-11-05T02:48:29.538Z,8.72
2022-11-05T02:51:33.152Z,8.73
2022-11-05T02:54:25.575Z,8.75
2022-11-05T02:56:56.888Z,8.75
2022-11-05T02:59:25.270Z,8.75
2022-11-05T03:01:54.544Z,8.75
2022-11-05T03:04:25.148Z,8.75
2022-11-05T03:07:40.168Z,8.75
2022-11-05T03:10:10.414Z,8.75
2022-11-05T03:12:57.251Z,8.73
2022-11-05T03:15:52.798Z,8.72
2022-11-05T03:18:38.850Z,8.72
2022-11-05T03:21:15.046Z,8.71
2022-11-05T03:24:18.763Z,8.71
2022-11-05T03:26:52.618Z,8.69
2022-11-05T03:29:31.766Z,8.68
2022-11-05T03:32:04.093Z,8.67
2022-11-05T03:34:39.870Z,8.65
2022-11-05T03:37:10.618Z,8.63
2022-11-05T03:39:50.791Z,8.61
2022-11-05T03:42:25.881Z,8.61
2022-11-05T03:44:58.919Z,8.60
2022-11-05T03:47:37.052Z,8.59
2022-11-05T03:50:23.638Z,8.58
2022-11-05T03:53:13.506Z,8.57
2022-11-05T03:55:59.409Z,8.56
2022-11-05T03:58:29.588Z,8.54
2022-11-05T04:01:02.307Z,8.54
2022-11-05T04:03:36.667Z,8.54
2022-11-05T04:06:26.578Z,8.53
2022-11-05T04:09:13.920Z,8.52
2022-11-05T04:12:00.626Z,8.53
2022-11-05T04:14:28.979Z,8.53
2022-11-05T04:17:06.596Z,8.53
2022-11-05T04:19:56.389Z,8.53
2022-11-05T04:22:46.073Z,8.54
2022-11-05T04:25:16.512Z,8.54
2022-11-05T04:27:45.664Z,8.55
2022-11-05T04:30:19.010Z,8.56
2022-11-05T04:33:16.035Z,8.56
2022-11-05T04:35:47.977Z,8.56
2022-11-05T04:38:19.770Z,8.56
2022-11-05T04:40:48.458Z,8.56
2022-11-05T04:43:19.779Z,8.56
2022-11-05T04:45:48.343Z,8.57
2022-11-05T04:48:16.661Z,8.57
2022-11-05T04:50:45.021Z,8.58
2022-11-05T04:53:13.697Z,8.59
2022-11-05T04:55:42.288Z,8.59
2022-11-05T04:58:10.633Z,8.58
2022-11-05T05:00:39.236Z,8.58
2022-11-05T05:03:08.903Z,8.58
2022-11-05T05:05:37.512Z,8.58
2022-11-05T05:08:06.153Z,8.57
2022-11-05T05:10:35.391Z,8.57
2022-11-05T05:13:03.761Z,8.57
2022-11-05T05:15:32.399Z,8.56
2022-11-05T05:18:00.875Z,8.56
2022-11-05T05:20:48.165Z,8.55
2022-11-05T05:23:16.680Z,8.55
2022-11-05T05:25:45.020Z,8.55
2022-11-05T05:28:13.349Z,8.55
2022-11-05T05:30:41.692Z,8.55
2022-11-05T05:33:10.339Z,8.55
2022-11-05T05:35:39.676Z,8.55
2022-11-05T05:38:08.277Z,8.55
2022-11-05T05:40:36.654Z,8.55
2022-11-05T05:43:05.004Z,8.55
2022-11-05T05:45:36.153Z,8.55
2022-11-05T05:48:05.383Z,8.56
2022-11-05T05:50:33.953Z,8.57
2022-11-05T05:53:02.480Z,8.57
2022-11-05T05:55:30.857Z,8.59
2022-11-05T05:57:59.209Z,8.60
2022-11-05T06:00:27.547Z,8.59
2022-11-05T06:02:56.637Z,8.61
2022-11-05T06:05:25.061Z,8.61
2022-11-05T06:07:57.805Z,8.63
2022-11-05T06:10:26.217Z,8.64
2022-11-05T06:12:54.672Z,8.66
2022-11-05T06:15:23.369Z,8.66
2022-11-05T06:17:51.747Z,8.67
2022-11-05T06:20:20.107Z,8.68
2022-11-05T06:22:58.108Z,8.69
2022-11-05T06:25:26.703Z,8.70
2022-11-05T06:27:55.095Z,8.71
2022-11-05T06:30:24.141Z,8.73
2022-11-05T06:32:52.564Z,8.75
2022-11-05T06:35:20.883Z,8.76
2022-11-05T06:37:49.283Z,8.79
2022-11-05T06:40:17.727Z,8.81
2022-11-05T06:42:46.085Z,8.83
2022-11-05T06:45:14.571Z,8.85
2022-11-05T06:47:42.842Z,8.87
2022-11-05T06:50:11.726Z,8.90
2022-11-05T06:52:41.207Z,8.93
2022-11-05T06:55:10.183Z,8.95
2022-11-05T06:57:38.957Z,8.98
2022-11-05T07:00:09.184Z,9.01
2022-11-05T07:02:37.682Z,9.03
2022-11-05T07:05:11.992Z,9.04
2022-11-05T07:07:41.834Z,9.05
2022-11-05T07:10:14.925Z,9.07
2022-11-05T07:12:43.897Z,9.08
2022-11-05T07:15:13.101Z,9.10
2022-11-05T07:17:41.402Z,9.11
2022-11-05T07:20:10.870Z,9.13
2022-11-05T07:22:39.240Z,9.14
2022-11-05T07:25:08.133Z,9.17
2022-11-05T07:27:46.685Z,9.19
2022-11-05T07:30:16.537Z,9.20
2022-11-05T07:32:44.849Z,9.21
2022-11-05T07:35:13.173Z,9.22
2022-11-05T07:37:50.800Z,9.23
2022-11-05T07:40:19.774Z,9.25
2022-11-05T07:42:52.137Z,9.26
2022-11-05T07:45:21.204Z,9.26
2022-11-05T07:47:58.808Z,9.27
2022-11-05T07:50:33.386Z,9.29
2022-11-05T07:53:09.826Z,9.31
2022-11-05T07:55:40.892Z,9.33
2022-11-05T07:58:10.873Z,9.34
2022-11-05T08:00:39.658Z,9.35
2022-11-05T08:03:18.291Z,9.37
2022-11-05T08:05:48.147Z,9.38
2022-11-05T08:08:19.671Z,9.41
2022-11-05T08:10:48.090Z,9.45
2022-11-05T08:13:17.044Z,9.50
2022-11-05T08:15:45.674Z,9.55
2022-11-05T08:18:17.243Z,9.59
2022-11-05T08:20:46.922Z,9.62
2022-11-05T08:23:15.584Z,9.67
2022-11-05T08:25:44.137Z,9.70
2022-11-05T08:28:15.014Z,9.73
2022-11-05T08:30:43.485Z,9.75
2022-11-05T08:33:13.626Z,9.79
2022-11-05T08:35:42.815Z,9.82
2022-11-05T08:38:18.579Z,9.85
2022-11-05T08:40:56.223Z,9.89
2022-11-05T08:43:25.065Z,9.94
2022-11-05T08:45:55.143Z,9.98
2022-11-05T08:48:23.757Z,10.03
2022-11-05T08:50:52.388Z,10.07
2022-11-05T08:53:20.824Z,10.10
2022-11-05T08:55:51.116Z,10.14
2022-11-05T08:58:22.416Z,10.18
2022-11-05T09:00:50.938Z,10.23
2022-11-05T09:03:19.795Z,10.28
2022-11-05T09:05:48.313Z,10.35
2022-11-05T09:08:19.339Z,10.39
2022-11-05T09:10:50.014Z,10.43
2022-11-05T09:13:20.113Z,10.47
2022-11-05T09:15:50.099Z,10.55
2022-11-05T09:18:20.185Z,10.62
2022-11-05T09:20:48.744Z,10.69
2022-11-05T09:23:18.137Z,10.76
2022-11-05T09:25:46.920Z,10.85
2022-11-05T09:28:21.564Z,10.92
2022-11-05T09:30:52.243Z,10.97
2022-11-05T09:33:24.630Z,10.99
2022-11-05T09:35:53.662Z,11.00
2022-11-05T09:38:22.128Z,11.03
2022-11-05T09:41:31.247Z,11.06
2022-11-05T09:44:05.655Z,11.05
2022-11-05T09:46:47.845Z,11.06
2022-11-05T09:49:27.755Z,11.07
2022-11-05T09:51:58.270Z,11.09
2022-11-05T09:54:34.192Z,11.12
2022-11-05T09:57:05.560Z,11.16
2022-11-05T09:59:42.581Z,11.21
2022-11-05T10:02:33.557Z,11.29
2022-11-05T10:05:10.301Z,11.35
2022-11-05T10:07:50.812Z,11.39
2022-11-05T10:10:49.120Z,11.44
2022-11-05T10:13:29.852Z,11.49
2022-11-05T10:16:11.429Z,11.52
2022-11-05T10:18:44.432Z,11.55
2022-11-05T10:21:32.281Z,11.58
2022-11-05T10:24:21.045Z,11.63
2022-11-05T10:26:52.869Z,11.64
2022-11-05T10:29:34.382Z,11.63
2022-11-05T10:32:05.827Z,11.63
2022-11-05T10:34:38.622Z,11.65
2022-11-05T10:37:07.015Z,11.69
2022-11-05T10:39:35.520Z,11.73
2022-11-05T10:42:24.227Z,11.74
2022-11-05T10:45:19.925Z,11.75
2022-11-05T10:48:43.714Z,11.71
2022-11-05T10:51:12.804Z,11.68
2022-11-05T10:53:51.123Z,11.71
2022-11-05T10:56:32.046Z,11.76
2022-11-05T10:59:01.861Z,11.84
2022-11-05T11:01:31.569Z,11.92
2022-11-05T11:04:22.695Z,12.00
2022-11-05T11:06:55.304Z,12.08
2022-11-05T11:09:25.284Z,12.17
2022-11-05T11:12:13.893Z,12.26
2022-11-05T11:14:42.556Z,12.36
2022-11-05T11:17:32.003Z,12.42
2022-11-05T11:20:22.062Z,12.40
2022-11-05T11:23:16.464Z,12.36
2022-11-05T11:26:01.754Z,12.34
2022-11-05T11:28:43.961Z,12.32
2022-11-05T11:31:16.855Z,12.29
2022-11-05T11:33:51.021Z,12.28
2022-11-05T11:36:26.647Z,12.26
2022-11-05T11:39:01.352Z,12.26
2022-11-05T11:41:37.609Z,12.23
2022-11-05T11:44:19.508Z,12.21
2022-11-05T11:46:53.492Z,12.19
2022-11-05T11:49:54.713Z,12.18
2022-11-05T11:52:35.478Z,12.15
2022-11-05T11:55:18.486Z,12.14
2022-11-05T11:58:06.406Z,12.12
2022-11-05T12:00:44.081Z,12.11
2022-11-05T12:03:30.510Z,12.10
2022-11-05T12:06:13.009Z,12.11
2022-11-05T12:09:26.632Z,12.13
2022-11-05T12:12:14.881Z,12.16
2022-11-05T12:14:57.994Z,12.17
2022-11-05T12:17:44.665Z,12.20
2022-11-05T12:21:50.907Z,12.29
2022-11-05T12:25:12.435Z,12.42
2022-11-05T12:28:21.267Z,12.59
2022-11-05T12:31:00.990Z,12.72
2022-11-05T12:33:47.792Z,12.82
2022-11-05T12:36:41.847Z,12.96
2022-11-05T12:39:34.383Z,13.10
2022-11-05T12:42:21.808Z,13.16
2022-11-05T12:45:00.554Z,13.14
2022-11-05T12:48:27.053Z,13.07
2022-11-05T12:51:56.498Z,12.97
2022-11-05T12:54:44.512Z,12.97
2022-11-05T12:57:15.933Z,13.02
2022-11-05T13:00:25.108Z,13.12
2022-11-05T13:03:16.370Z,13.21
2022-11-05T13:06:16.100Z,13.20
2022-11-05T13:09:11.376Z,13.18
2022-11-05T13:11:56.218Z,13.21
2022-11-05T13:14:36.354Z,13.31
2022-11-05T13:17:13.361Z,13.44
2022-11-05T13:19:52.826Z,13.56
2022-11-05T13:22:44.058Z,13.64
2022-11-05T13:25:25.628Z,13.74
2022-11-05T13:28:25.303Z,13.81
2022-11-05T13:31:01.222Z,13.90
2022-11-05T13:33:36.595Z,13.98
2022-11-05T13:36:46.749Z,14.09
2022-11-05T13:39:25.143Z,14.19
2022-11-05T13:42:18.061Z,14.25
2022-11-05T13:45:22.924Z,14.39
2022-11-05T13:48:16.610Z,14.73
2022-11-05T13:51:22.082Z,15.15
2022-11-05T13:54:33.211Z,15.22
2022-11-05T13:57:27.899Z,15.38
2022-11-05T14:00:02.964Z,15.65
2022-11-05T14:02:42.257Z,15.74
2022-11-05T14:05:29.029Z,15.61
2022-11-05T14:08:01.318Z,15.43
2022-11-05T14:10:43.385Z,15.21
2022-11-05T14:13:26.744Z,15.09
2022-11-05T14:16:06.536Z,15.08
2022-11-05T14:18:45.451Z,15.05
2022-11-05T14:21:47.407Z,15.04
2022-11-05T14:24:21.956Z,14.83
2022-11-05T14:27:32.654Z,14.67
2022-11-05T14:30:01.079Z,14.48
2022-11-05T14:32:45.856Z,14.29
2022-11-05T14:35:17.059Z,14.09
2022-11-05T14:37:59.465Z,13.88
2022-11-05T14:40:42.420Z,13.65
2022-11-05T14:43:23.483Z,13.49
2022-11-05T14:46:07.827Z,13.37
2022-11-05T14:48:53.073Z,13.23
2022-11-05T14:51:36.634Z,13.12
2022-11-05T14:54:18.382Z,13.00
2022-11-05T14:56:56.083Z,12.88
2022-11-05T14:59:24.981Z,12.74
2022-11-05T15:02:16.572Z,12.64
2022-11-05T15:04:45.733Z,12.55
2022-11-05T15:07:35.926Z,12.48
2022-11-05T15:10:14.288Z,12.38
2022-11-05T15:12:50.701Z,12.29
2022-11-05T15:15:29.840Z,12.21
2022-11-05T15:18:17.448Z,12.12
2022-11-05T15:20:49.459Z,12.01
2022-11-05T15:23:24.217Z,11.93
2022-11-05T15:26:09.959Z,11.83
2022-11-05T15:28:38.917Z,11.70
2022-11-05T15:31:13.016Z,11.58
2022-11-05T15:33:44.169Z,11.47
2022-11-05T15:36:30.283Z,11.36
2022-11-05T15:39:28.014Z,11.24
2022-11-05T15:41:47.981Z,11.13
2022-11-05T15:44:33.280Z,11.03
2022-11-05T15:47:34.338Z,10.94
2022-11-05T15:50:14.977Z,10.83
2022-11-05T15:52:53.944Z,10.73
2022-11-05T15:55:25.811Z,10.64
2022-11-05T15:58:03.435Z,10.54
2022-11-05T16:00:35.574Z,10.46
2022-11-05T16:03:30.642Z,10.39
2022-11-05T16:06:01.093Z,10.30
2022-11-05T16:08:33.614Z,10.22
2022-11-05T16:11:02.190Z,10.16
2022-11-05T16:13:44.533Z,10.08
2022-11-05T16:16:16.008Z,10.00
2022-11-05T16:18:45.500Z,9.94
2022-11-05T16:21:19.499Z,9.88
2022-11-05T16:23:58.739Z,9.83
2022-11-05T16:29:40.199Z,9.72
2022-11-05T16:32:31.721Z,9.68
2022-11-05T16:35:05.599Z,9.63
2022-11-05T16:37:45.219Z,9.59
2022-11-05T16:40:24.051Z,9.54
2022-11-05T16:42:54.128Z,9.50
2022-11-05T16:45:25.001Z,9.45
2022-11-05T16:47:53.375Z,9.40
2022-11-05T16:50:26.997Z,9.35
2022-11-05T16:52:55.490Z,9.30
2022-11-05T16:55:24.102Z,9.26
2022-11-05T16:57:55.268Z,9.21
2022-11-05T17:00:25.157Z,9.17
2022-11-05T17:02:54.556Z,9.13
2022-11-05T17:05:29.741Z,9.10
2022-11-05T17:07:58.371Z,9.07
2022-11-05T17:10:27.353Z,9.02
2022-11-05T17:12:55.782Z,8.99
2022-11-05T17:15:36.524Z,8.95
2022-11-05T17:18:05.811Z,8.91
2022-11-05T17:20:41.512Z,8.86
2022-11-05T17:23:19.341Z,8.82
2022-11-05T17:25:54.057Z,8.78
2022-11-05T17:28:22.672Z,8.75
2022-11-05T17:30:53.838Z,8.72
2022-11-05T17:33:23.388Z,8.69
2022-11-05T17:35:52.756Z,8.66
2022-11-05T17:38:23.412Z,8.65
2022-11-05T17:40:52.832Z,8.62
2022-11-05T17:43:21.608Z,8.61
2022-11-05T17:45:52.336Z,8.58
2022-11-05T17:48:21.271Z,8.55
2022-11-05T17:50:51.085Z,8.52
2022-11-05T17:53:19.802Z,8.49
2022-11-05T17:55:48.342Z,8.47
2022-11-05T17:58:16.877Z,8.44
2022-11-05T18:00:47.084Z,8.42
2022-11-05T18:03:15.968Z,8.39
2022-11-05T18:05:44.872Z,8.37
2022-11-05T18:08:13.295Z,8.34
2022-11-05T18:10:42.133Z,8.32
2022-11-05T18:13:11.369Z,8.30
2022-11-05T18:15:41.260Z,8.29
2022-11-05T18:18:10.060Z,8.27
2022-11-05T18:20:38.533Z,8.25
2022-11-05T18:23:07.017Z,8.22
2022-11-05T18:25:35.774Z,8.19
2022-11-05T18:28:04.244Z,8.16
2022-11-05T18:30:32.716Z,8.12
2022-11-05T18:33:01.127Z,8.07
2022-11-05T18:35:29.681Z,8.03
2022-11-05T18:37:58.130Z,7.99
2022-11-05T18:40:27.641Z,7.95
2022-11-05T18:42:56.044Z,7.92
2022-11-05T18:45:29.436Z,7.89
2022-11-05T18:48:01.367Z,7.85
2022-11-05T18:50:30.467Z,7.82
2022-11-05T18:52:58.821Z,7.78
2022-11-05T18:55:27.277Z,7.75
2022-11-05T18:57:56.114Z,7.72
2022-11-05T19:00:27.899Z,7.69
2022-11-05T19:02:56.584Z,7.65
2022-11-05T19:05:29.726Z,7.60
2022-11-05T19:07:58.737Z,7.57
2022-11-05T19:10:27.468Z,7.54
2022-11-05T19:12:56.298Z,7.50
2022-11-05T19:15:24.656Z,7.47
2022-11-05T19:17:53.120Z,7.43
2022-11-05T19:20:21.528Z,7.39
2022-11-05T19:22:50.091Z,7.36
2022-11-05T19:25:18.580Z,7.32
2022-11-05T19:27:47.017Z,7.29
2022-11-05T19:30:15.560Z,7.25
2022-11-05T19:32:43.858Z,7.21
2022-11-05T19:35:13.602Z,7.17
2022-11-05T19:37:42.384Z,7.13
2022-11-05T19:40:11.562Z,7.10
2022-11-05T19:42:39.929Z,7.06
2022-11-05T19:45:38.390Z,7.04
2022-11-05T19:47:57.655Z,7.00
2022-11-05T19:50:26.333Z,6.97
2022-11-05T19:52:54.755Z,6.94
2022-11-05T19:55:23.177Z,6.90
2022-11-05T19:57:51.624Z,6.87
2022-11-05T20:00:20.022Z,6.84
2022-11-05T20:02:48.483Z,6.80
2022-11-05T20:05:18.347Z,6.76
2022-11-05T20:07:52.313Z,6.73
2022-11-05T20:10:22.133Z,6.70
2022-11-05T20:12:51.337Z,6.67
2022-11-05T20:15:20.053Z,6.63
2022-11-05T20:17:51.612Z,6.61
2022-11-05T20:20:20.321Z,6.57
2022-11-05T20:22:48.668Z,6.56
2022-11-05T20:25:17.096Z,6.53
2022-11-05T20:27:45.541Z,6.52
2022-11-05T20:30:14.029Z,6.50
2022-11-05T20:32:42.486Z,6.48
2022-11-05T20:35:10.864Z,6.46
2022-11-05T20:37:39.221Z,6.44
2022-11-05T20:40:08.582Z,6.40
2022-11-05T20:42:37.063Z,6.38
2022-11-05T20:45:07.121Z,6.35
2022-11-05T20:47:35.682Z,6.27
2022-11-05T20:50:05.311Z,6.14
2022-11-05T20:52:33.802Z,6.05
2022-11-05T20:55:02.378Z,5.97
2022-11-05T20:57:30.875Z,5.91
2022-11-05T20:59:59.328Z,5.85
2022-11-05T21:02:27.888Z,5.79
2022-11-05T21:04:56.352Z,5.75
2022-11-05T21:07:24.832Z,5.72
2022-11-05T21:09:53.239Z,5.69
2022-11-05T21:12:23.139Z,5.67
2022-11-05T21:14:52.347Z,5.63
2022-11-05T21:17:20.736Z,5.62
2022-11-05T21:19:49.077Z,5.59
2022-11-05T21:22:17.614Z,5.58
2022-11-05T21:24:45.979Z,5.58
2022-11-05T21:27:14.407Z,5.58
2022-11-05T21:29:42.720Z,5.59
2022-11-05T21:32:11.687Z,5.59
2022-11-05T21:34:40.046Z,5.58
2022-11-05T21:37:08.451Z,5.59
2022-11-05T21:39:37.025Z,5.58
2022-11-05T21:42:05.472Z,5.57
2022-11-05T21:44:33.865Z,5.55
2022-11-05T21:47:04.547Z,5.53
2022-11-05T21:49:34.765Z,5.52
2022-11-05T21:52:22.576Z,5.51
2022-11-05T21:55:09.464Z,5.50
2022-11-05T21:57:56.572Z,5.48
2022-11-05T22:00:25.447Z,5.48
2022-11-05T22:02:53.897Z,5.47
2022-11-05T22:05:22.394Z,5.47
2022-11-05T22:07:50.774Z,5.46
2022-11-05T22:10:19.151Z,5.45
2022-11-05T22:12:47.658Z,5.45
2022-11-05T22:15:16.065Z,5.44
2022-11-05T22:17:47.199Z,5.43
2022-11-05T22:20:16.593Z,5.40
2022-11-05T22:22:45.693Z,5.37
2022-11-05T22:25:14.900Z,5.34
2022-11-05T22:27:44.115Z,5.26
2022-11-05T22:30:14.735Z,5.20
2022-11-05T22:32:43.101Z,5.16
2022-11-05T22:35:11.603Z,5.11
2022-11-05T22:37:40.131Z,5.06
2022-11-05T22:40:09.803Z,5.01
2022-11-05T22:42:38.371Z,4.96
2022-11-05T22:45:07.415Z,4.92
2022-11-05T22:47:35.867Z,4.89
2022-11-05T22:50:05.269Z,4.84
2022-11-05T22:52:33.824Z,4.78
2022-11-05T22:55:04.520Z,4.72
2022-11-05T22:57:33.102Z,4.65
2022-11-05T23:00:01.491Z,4.58
2022-11-05T23:02:30.156Z,4.53
2022-11-05T23:04:58.720Z,4.49
2022-11-05T23:07:45.511Z,4.45
2022-11-05T23:10:32.004Z,4.40
2022-11-05T23:13:00.470Z,4.33
2022-11-05T23:15:47.531Z,4.26
2022-11-05T23:18:34.469Z,4.19
2022-11-05T23:21:23.198Z,4.14
2022-11-05T23:24:07.076Z,4.08
2022-11-05T23:26:50.443Z,4.05
2022-11-05T23:29:25.549Z,4.03
2022-11-05T23:32:12.829Z,3.97
2022-11-05T23:34:41.187Z,3.90
2022-11-05T23:37:28.213Z,3.86
2022-11-05T23:39:56.573Z,3.86
2022-11-05T23:42:43.546Z,3.87
2022-11-05T23:45:51.766Z,3.87
2022-11-05T23:48:34.809Z,3.85
2022-11-05T23:51:06.023Z,3.82
2022-11-05T23:53:37.840Z,3.79
2022-11-05T23:56:11.948Z,3.75
2022-11-05T23:58:41.867Z,3.71
